sensor_id;sensor_type;location;lat;lon;timestamp;pressure;altitude;pressure_sealevel;temperature;humidity
32759;BME280;19125;52.360;9.974;2023-05-11T00:00:48;-15009.00;;;-145.17;74.75
32759;BME280;19125;52.360;9.974;2023-05-11T00:03:13;-15009.00;;;-145.17;74.67
32759;BME280;19125;52.360;9.974;2023-05-11T00:05:38;-15009.00;;;-145.17;75.06
32759;BME280;19125;52.360;9.974;2023-05-11T00:08:04;-15010.44;;;-145.17;75.00
32759;BME280;19125;52.360;9.974;2023-05-11T00:10:29;-15010.44;;;-145.17;75.15
32759;BME280;19125;52.360;9.974;2023-05-11T00:12:55;-15010.44;;;-145.17;74.90
32759;BME280;19125;52.360;9.974;2023-05-11T00:15:20;-15010.44;;;-145.17;74.88
32759;BME280;19125;52.360;9.974;2023-05-11T00:17:46;-15010.44;;;-145.17;74.98
32759;BME280;19125;52.360;9.974;2023-05-11T00:20:11;-15010.44;;;-145.17;74.94
32759;BME280;19125;52.360;9.974;2023-05-11T00:22:36;-15010.44;;;-145.17;75.16
32759;BME280;19125;52.360;9.974;2023-05-11T00:25:03;-15010.44;;;-145.17;75.41
32759;BME280;19125;52.360;9.974;2023-05-11T00:27:28;-15010.44;;;-145.17;75.21
32759;BME280;19125;52.360;9.974;2023-05-11T00:29:54;-15010.44;;;-145.17;75.31
32759;BME280;19125;52.360;9.974;2023-05-11T00:32:19;-15010.44;;;-145.17;75.31
32759;BME280;19125;52.360;9.974;2023-05-11T00:34:44;-15010.44;;;-145.17;75.36
32759;BME280;19125;52.360;9.974;2023-05-11T00:37:10;-15010.44;;;-145.17;75.80
32759;BME280;19125;52.360;9.974;2023-05-11T00:39:35;-15010.44;;;-145.17;75.82
32759;BME280;19125;52.360;9.974;2023-05-11T00:42:05;-15010.44;;;-145.17;75.54
32759;BME280;19125;52.360;9.974;2023-05-11T00:44:30;-15010.44;;;-145.17;75.70
32759;BME280;19125;52.360;9.974;2023-05-11T00:46:56;-15010.44;;;-145.17;75.72
32759;BME280;19125;52.360;9.974;2023-05-11T00:49:22;-15010.44;;;-145.17;75.80
32759;BME280;19125;52.360;9.974;2023-05-11T00:51:47;-15010.44;;;-145.17;75.68
32759;BME280;19125;52.360;9.974;2023-05-11T00:54:13;-15010.44;;;-145.17;75.75
32759;BME280;19125;52.360;9.974;2023-05-11T00:56:40;-15010.44;;;-145.17;75.72
32759;BME280;19125;52.360;9.974;2023-05-11T00:59:07;-15010.44;;;-145.17;75.61
32759;BME280;19125;52.360;9.974;2023-05-11T01:01:32;-15010.44;;;-145.17;75.81
32759;BME280;19125;52.360;9.974;2023-05-11T01:03:57;-15010.44;;;-145.17;75.84
32759;BME280;19125;52.360;9.974;2023-05-11T01:09:01;-15010.44;;;-145.17;76.00
32759;BME280;19125;52.360;9.974;2023-05-11T01:11:47;-15010.44;;;-145.17;75.99
32759;BME280;19125;52.360;9.974;2023-05-11T01:14:22;-15010.44;;;-145.17;75.81
32759;BME280;19125;52.360;9.974;2023-05-11T01:16:56;-15010.44;;;-145.17;75.76
32759;BME280;19125;52.360;9.974;2023-05-11T01:30:42;-15010.44;;;-145.17;76.01
32759;BME280;19125;52.360;9.974;2023-05-11T01:33:13;-15010.44;;;-145.17;76.12
32759;BME280;19125;52.360;9.974;2023-05-11T01:35:45;-15010.44;;;-145.17;76.06
32759;BME280;19125;52.360;9.974;2023-05-11T01:38:13;-15010.44;;;-145.17;76.05
32759;BME280;19125;52.360;9.974;2023-05-11T01:40:40;-15010.44;;;-145.17;76.10
32759;BME280;19125;52.360;9.974;2023-05-11T01:43:12;-15010.44;;;-145.17;75.87
32759;BME280;19125;52.360;9.974;2023-05-11T01:45:40;-15010.44;;;-145.17;76.12
32759;BME280;19125;52.360;9.974;2023-05-11T01:48:11;-15010.44;;;-145.17;75.74
32759;BME280;19125;52.360;9.974;2023-05-11T01:50:37;-15010.44;;;-145.17;76.04
32759;BME280;19125;52.360;9.974;2023-05-11T01:53:05;-15010.44;;;-145.17;75.90
32759;BME280;19125;52.360;9.974;2023-05-11T01:55:33;-15010.44;;;-145.17;75.99
32759;BME280;19125;52.360;9.974;2023-05-11T01:58:01;-15010.44;;;-145.17;76.22
32759;BME280;19125;52.360;9.974;2023-05-11T02:00:28;-15010.44;;;-145.17;75.94
32759;BME280;19125;52.360;9.974;2023-05-11T02:02:55;-15010.44;;;-145.17;75.99
32759;BME280;19125;52.360;9.974;2023-05-11T02:05:22;-15010.44;;;-145.17;76.33
32759;BME280;19125;52.360;9.974;2023-05-11T02:07:50;-15010.44;;;-145.17;76.21
32759;BME280;19125;52.360;9.974;2023-05-11T02:10:17;-15010.44;;;-145.17;76.07
32759;BME280;19125;52.360;9.974;2023-05-11T02:12:44;-15010.44;;;-145.17;76.27
32759;BME280;19125;52.360;9.974;2023-05-11T02:15:11;-15010.44;;;-145.17;76.05
32759;BME280;19125;52.360;9.974;2023-05-11T02:17:38;-15010.44;;;-145.17;76.14
32759;BME280;19125;52.360;9.974;2023-05-11T02:20:06;-15010.44;;;-145.17;76.34
32759;BME280;19125;52.360;9.974;2023-05-11T02:22:34;-15010.44;;;-145.17;76.19
32759;BME280;19125;52.360;9.974;2023-05-11T02:25:00;-15010.44;;;-145.17;76.53
32759;BME280;19125;52.360;9.974;2023-05-11T02:27:26;-15010.44;;;-145.17;76.29
32759;BME280;19125;52.360;9.974;2023-05-11T02:29:52;-15010.44;;;-145.17;76.71
32759;BME280;19125;52.360;9.974;2023-05-11T02:32:20;-15010.44;;;-145.17;76.57
32759;BME280;19125;52.360;9.974;2023-05-11T02:35:12;-15010.44;;;-145.17;76.39
32759;BME280;19125;52.360;9.974;2023-05-11T02:37:40;-15010.44;;;-145.17;76.45
32759;BME280;19125;52.360;9.974;2023-05-11T02:40:14;-15010.44;;;-145.17;76.65
32759;BME280;19125;52.360;9.974;2023-05-11T02:42:41;-15010.44;;;-145.17;76.36
32759;BME280;19125;52.360;9.974;2023-05-11T02:45:08;-15010.44;;;-145.17;76.43
32759;BME280;19125;52.360;9.974;2023-05-11T02:47:38;-15010.44;;;-145.17;76.56
32759;BME280;19125;52.360;9.974;2023-05-11T02:50:07;-15010.44;;;-145.17;76.74
32759;BME280;19125;52.360;9.974;2023-05-11T02:52:34;-15010.44;;;-145.17;76.78
32759;BME280;19125;52.360;9.974;2023-05-11T02:55:02;-15010.44;;;-145.17;76.84
32759;BME280;19125;52.360;9.974;2023-05-11T02:57:29;-15010.44;;;-145.17;76.72
32759;BME280;19125;52.360;9.974;2023-05-11T02:59:54;-15010.44;;;-145.17;76.72
32759;BME280;19125;52.360;9.974;2023-05-11T03:02:19;-15010.44;;;-145.17;76.67
32759;BME280;19125;52.360;9.974;2023-05-11T03:04:45;-15010.44;;;-145.17;76.63
32759;BME280;19125;52.360;9.974;2023-05-11T03:07:11;-15010.44;;;-145.17;77.00
32759;BME280;19125;52.360;9.974;2023-05-11T03:09:37;-15010.44;;;-145.17;76.75
32759;BME280;19125;52.360;9.974;2023-05-11T03:12:02;-15010.44;;;-145.17;76.86
32759;BME280;19125;52.360;9.974;2023-05-11T03:14:30;-15010.44;;;-145.17;77.00
32759;BME280;19125;52.360;9.974;2023-05-11T03:16:57;-15010.44;;;-145.17;76.79
32759;BME280;19125;52.360;9.974;2023-05-11T03:19:23;-15010.44;;;-145.17;76.63
32759;BME280;19125;52.360;9.974;2023-05-11T03:21:51;-15010.44;;;-145.17;76.75
32759;BME280;19125;52.360;9.974;2023-05-11T03:24:17;-15010.44;;;-145.17;76.99
32759;BME280;19125;52.360;9.974;2023-05-11T03:26:43;-15010.44;;;-145.17;76.75
32759;BME280;19125;52.360;9.974;2023-05-11T03:29:10;-15010.44;;;-145.17;76.90
32759;BME280;19125;52.360;9.974;2023-05-11T03:31:37;-15010.44;;;-145.17;77.13
32759;BME280;19125;52.360;9.974;2023-05-11T03:34:02;-15010.44;;;-145.17;77.03
32759;BME280;19125;52.360;9.974;2023-05-11T03:36:28;-15010.44;;;-145.17;76.98
32759;BME280;19125;52.360;9.974;2023-05-11T03:38:53;-15010.44;;;-145.17;76.96
32759;BME280;19125;52.360;9.974;2023-05-11T03:41:22;-15010.44;;;-145.17;77.10
32759;BME280;19125;52.360;9.974;2023-05-11T03:43:53;-15010.44;;;-145.17;77.15
32759;BME280;19125;52.360;9.974;2023-05-11T03:46:21;-15010.44;;;-145.17;76.97
32759;BME280;19125;52.360;9.974;2023-05-11T03:48:47;-15010.44;;;-145.17;77.17
32759;BME280;19125;52.360;9.974;2023-05-11T03:51:14;-15010.44;;;-145.17;76.93
32759;BME280;19125;52.360;9.974;2023-05-11T03:53:39;-15010.44;;;-145.17;77.32
32759;BME280;19125;52.360;9.974;2023-05-11T03:56:05;-15010.44;;;-145.17;76.96
32759;BME280;19125;52.360;9.974;2023-05-11T03:58:39;-15010.44;;;-145.17;77.15
32759;BME280;19125;52.360;9.974;2023-05-11T04:01:06;-15010.44;;;-145.17;77.36
32759;BME280;19125;52.360;9.974;2023-05-11T04:03:33;-15010.44;;;-145.17;77.03
32759;BME280;19125;52.360;9.974;2023-05-11T04:05:58;-15010.44;;;-145.17;77.34
32759;BME280;19125;52.360;9.974;2023-05-11T04:08:24;-15010.44;;;-145.17;77.30
32759;BME280;19125;52.360;9.974;2023-05-11T04:10:49;-15010.44;;;-145.17;77.07
32759;BME280;19125;52.360;9.974;2023-05-11T04:13:14;-15010.44;;;-145.17;77.08
32759;BME280;19125;52.360;9.974;2023-05-11T04:15:40;-15010.44;;;-145.17;76.98
32759;BME280;19125;52.360;9.974;2023-05-11T04:18:05;-15010.44;;;-145.17;77.28
32759;BME280;19125;52.360;9.974;2023-05-11T04:20:30;-15010.44;;;-145.17;77.25
32759;BME280;19125;52.360;9.974;2023-05-11T04:22:56;-15010.44;;;-145.17;77.17
32759;BME280;19125;52.360;9.974;2023-05-11T04:25:21;-15010.44;;;-145.17;77.16
32759;BME280;19125;52.360;9.974;2023-05-11T04:27:46;-15010.44;;;-145.17;77.00
32759;BME280;19125;52.360;9.974;2023-05-11T04:30:12;-15010.44;;;-145.17;77.04
32759;BME280;19125;52.360;9.974;2023-05-11T04:32:37;-15010.44;;;-145.17;77.19
32759;BME280;19125;52.360;9.974;2023-05-11T04:35:03;-15010.44;;;-145.17;76.82
32759;BME280;19125;52.360;9.974;2023-05-11T04:37:28;-15010.44;;;-145.17;76.78
32759;BME280;19125;52.360;9.974;2023-05-11T04:39:53;-15010.44;;;-145.17;76.88
32759;BME280;19125;52.360;9.974;2023-05-11T04:42:19;-15010.44;;;-145.17;76.90
32759;BME280;19125;52.360;9.974;2023-05-11T04:44:44;-15010.44;;;-145.17;76.66
32759;BME280;19125;52.360;9.974;2023-05-11T04:47:09;-15010.44;;;-145.17;76.54
32759;BME280;19125;52.360;9.974;2023-05-11T04:49:35;-15010.44;;;-145.17;76.56
32759;BME280;19125;52.360;9.974;2023-05-11T04:52:00;-15010.44;;;-145.17;76.41
32759;BME280;19125;52.360;9.974;2023-05-11T04:54:25;-15010.44;;;-145.17;76.21
32759;BME280;19125;52.360;9.974;2023-05-11T04:56:51;-15010.44;;;-145.17;76.55
32759;BME280;19125;52.360;9.974;2023-05-11T04:59:16;-15010.44;;;-145.17;76.28
32759;BME280;19125;52.360;9.974;2023-05-11T05:01:41;-15010.44;;;-145.17;76.28
32759;BME280;19125;52.360;9.974;2023-05-11T05:04:07;-15010.44;;;-145.17;76.10
32759;BME280;19125;52.360;9.974;2023-05-11T05:06:32;-15010.44;;;-145.17;76.17
32759;BME280;19125;52.360;9.974;2023-05-11T05:08:58;-15010.44;;;-145.17;76.24
32759;BME280;19125;52.360;9.974;2023-05-11T05:11:23;-15010.44;;;-145.17;75.95
32759;BME280;19125;52.360;9.974;2023-05-11T05:13:48;-15010.44;;;-145.17;75.55
32759;BME280;19125;52.360;9.974;2023-05-11T05:16:14;-15010.44;;;-145.17;75.72
32759;BME280;19125;52.360;9.974;2023-05-11T05:18:39;-15010.44;;;-145.17;75.48
32759;BME280;19125;52.360;9.974;2023-05-11T05:21:05;-15010.44;;;-145.17;75.51
32759;BME280;19125;52.360;9.974;2023-05-11T05:23:30;-15010.44;;;-145.17;75.47
32759;BME280;19125;52.360;9.974;2023-05-11T05:25:56;-15010.44;;;-145.17;75.12
32759;BME280;19125;52.360;9.974;2023-05-11T05:28:21;-15010.44;;;-145.17;75.15
32759;BME280;19125;52.360;9.974;2023-05-11T05:30:47;-15010.44;;;-145.17;74.98
32759;BME280;19125;52.360;9.974;2023-05-11T05:33:12;-15010.44;;;-145.17;75.21
32759;BME280;19125;52.360;9.974;2023-05-11T05:35:37;-15010.44;;;-145.17;75.28
32759;BME280;19125;52.360;9.974;2023-05-11T05:38:03;-15010.44;;;-145.17;75.07
32759;BME280;19125;52.360;9.974;2023-05-11T05:40:28;-15009.00;;;-145.17;75.17
32759;BME280;19125;52.360;9.974;2023-05-11T05:42:53;-14761.44;;;-145.17;74.72
32759;BME280;19125;52.360;9.974;2023-05-11T05:45:19;-14761.44;;;-145.17;75.00
32759;BME280;19125;52.360;9.974;2023-05-11T05:47:44;-14761.44;;;-145.17;74.94
32759;BME280;19125;52.360;9.974;2023-05-11T05:50:10;-14761.44;;;-145.17;74.80
32759;BME280;19125;52.360;9.974;2023-05-11T05:52:35;-14761.44;;;-145.17;75.06
32759;BME280;19125;52.360;9.974;2023-05-11T05:55:01;-14513.88;;;-145.17;74.80
32759;BME280;19125;52.360;9.974;2023-05-11T05:57:26;-14513.88;;;-145.17;75.00
32759;BME280;19125;52.360;9.974;2023-05-11T05:59:54;-14513.88;;;-145.17;74.82
32759;BME280;19125;52.360;9.974;2023-05-11T06:02:20;-14761.44;;;-145.17;74.60
32759;BME280;19125;52.360;9.974;2023-05-11T06:04:45;-14513.88;;;-145.17;74.77
32759;BME280;19125;52.360;9.974;2023-05-11T06:07:11;-14513.88;;;-145.17;74.55
32759;BME280;19125;52.360;9.974;2023-05-11T06:09:38;-14513.88;;;-145.17;74.62
32759;BME280;19125;52.360;9.974;2023-05-11T06:12:04;-14266.31;;;-145.17;74.39
32759;BME280;19125;52.360;9.974;2023-05-11T06:14:30;-13771.13;;;-145.17;74.34
32759;BME280;19125;52.360;9.974;2023-05-11T06:16:55;-13275.88;;;-145.17;74.11
32759;BME280;19125;52.360;9.974;2023-05-11T06:19:21;-12780.53;;;-145.17;73.93
32759;BME280;19125;52.360;9.974;2023-05-11T06:21:46;-12532.84;;;-145.17;73.94
32759;BME280;19125;52.360;9.974;2023-05-11T06:24:12;-12037.44;;;-145.17;73.76
32759;BME280;19125;52.360;9.974;2023-05-11T06:26:38;-11789.69;;;-145.17;73.99
32759;BME280;19125;52.360;9.974;2023-05-11T06:29:05;-11046.41;;;-145.17;73.52
32759;BME280;19125;52.360;9.974;2023-05-11T06:31:30;-10550.78;;;-145.17;73.39
32759;BME280;19125;52.360;9.974;2023-05-11T06:33:55;-10055.13;;;-145.17;73.21
32759;BME280;19125;52.360;9.974;2023-05-11T06:36:21;-9311.50;;;-145.17;73.32
32759;BME280;19125;52.360;9.974;2023-05-11T06:38:46;-8815.66;;;-145.17;73.40
32759;BME280;19125;52.360;9.974;2023-05-11T06:41:11;-8567.72;;;-145.17;73.46
32759;BME280;19125;52.360;9.974;2023-05-11T06:43:37;-8319.75;;;-145.17;73.50
32759;BME280;19125;52.360;9.974;2023-05-11T06:46:03;-8567.72;;;-145.17;73.21
32759;BME280;19125;52.360;9.974;2023-05-11T06:48:29;-8567.72;;;-145.17;73.28
32759;BME280;19125;52.360;9.974;2023-05-11T06:50:57;-8319.75;;;-145.17;73.56
32759;BME280;19125;52.360;9.974;2023-05-11T06:53:23;-8319.75;;;-145.17;73.39
32759;BME280;19125;52.360;9.974;2023-05-11T06:55:48;-8567.72;;;-145.17;73.35
32759;BME280;19125;52.360;9.974;2023-05-11T06:58:13;-8319.75;;;-145.17;73.39
32759;BME280;19125;52.360;9.974;2023-05-11T07:00:39;-8071.78;;;-145.17;73.38
32759;BME280;19125;52.360;9.974;2023-05-11T07:03:05;-7327.75;;;-145.17;73.35
32759;BME280;19125;52.360;9.974;2023-05-11T07:05:30;-7079.72;;;-145.17;73.23
32759;BME280;19125;52.360;9.974;2023-05-11T07:07:56;-7079.72;;;-145.17;73.01
32759;BME280;19125;52.360;9.974;2023-05-11T07:10:21;-6583.59;;;-145.17;73.31
32759;BME280;19125;52.360;9.974;2023-05-11T07:12:46;-6335.50;;;-145.17;72.90
32759;BME280;19125;52.360;9.974;2023-05-11T07:15:12;-5839.28;;;-145.17;72.77
32759;BME280;19125;52.360;9.974;2023-05-11T07:17:37;-5839.28;;;-145.17;73.00
32759;BME280;19125;52.360;9.974;2023-05-11T07:20:03;-5839.28;;;-145.17;72.84
32759;BME280;19125;52.360;9.974;2023-05-11T07:22:28;-5591.16;;;-145.17;72.57
32759;BME280;19125;52.360;9.974;2023-05-11T07:24:54;-4846.66;;;-145.17;72.62
32759;BME280;19125;52.360;9.974;2023-05-11T07:27:19;-4350.25;;;-145.17;72.68
32759;BME280;19125;52.360;9.974;2023-05-11T07:29:44;-4102.00;;;-145.17;72.88
32759;BME280;19125;52.360;9.974;2023-05-11T07:32:10;-3605.50;;;-145.17;72.51
32759;BME280;19125;52.360;9.974;2023-05-11T07:34:35;-3357.22;;;-145.17;72.30
32759;BME280;19125;52.360;9.974;2023-05-11T07:37:00;-3853.78;;;-145.17;72.74
32759;BME280;19125;52.360;9.974;2023-05-11T07:39:26;-3108.94;;;-145.17;72.23
32759;BME280;19125;52.360;9.974;2023-05-11T07:41:51;-2860.63;;;-145.17;72.46
32759;BME280;19125;52.360;9.974;2023-05-11T07:44:17;-2860.63;;;-145.17;72.57
32759;BME280;19125;52.360;9.974;2023-05-11T07:46:42;-3108.94;;;-145.17;72.56
32759;BME280;19125;52.360;9.974;2023-05-11T07:49:07;-3357.22;;;-145.17;72.39
32759;BME280;19125;52.360;9.974;2023-05-11T07:51:35;-3108.94;;;-145.17;72.48
32759;BME280;19125;52.360;9.974;2023-05-11T07:54:00;-3108.94;;;-145.17;72.50
32759;BME280;19125;52.360;9.974;2023-05-11T07:56:26;-2612.28;;;-145.17;72.38
32759;BME280;19125;52.360;9.974;2023-05-11T07:58:51;-3108.94;;;-145.17;72.80
32759;BME280;19125;52.360;9.974;2023-05-11T08:01:16;-2860.63;;;-145.17;72.36
32759;BME280;19125;52.360;9.974;2023-05-11T08:03:42;-2612.28;;;-145.17;72.26
32759;BME280;19125;52.360;9.974;2023-05-11T08:06:07;-2115.59;;;-145.17;72.32
32759;BME280;19125;52.360;9.974;2023-05-11T08:08:32;-2115.59;;;-145.17;72.34
32759;BME280;19125;52.360;9.974;2023-05-11T08:10:59;-1867.22;;;-145.17;72.26
32759;BME280;19125;52.360;9.974;2023-05-11T08:13:25;-2115.59;;;-145.17;72.34
32759;BME280;19125;52.360;9.974;2023-05-11T08:15:50;-2612.28;;;-145.17;72.52
32759;BME280;19125;52.360;9.974;2023-05-11T08:18:15;-3357.22;;;-145.17;72.57
32759;BME280;19125;52.360;9.974;2023-05-11T08:20:42;-4102.00;;;-145.17;72.71
32759;BME280;19125;52.360;9.974;2023-05-11T08:23:08;-4846.66;;;-145.17;72.92
32759;BME280;19125;52.360;9.974;2023-05-11T08:25:34;-4846.66;;;-145.17;72.64
32759;BME280;19125;52.360;9.974;2023-05-11T08:28:00;-4598.47;;;-145.17;72.72
32759;BME280;19125;52.360;9.974;2023-05-11T08:30:26;-4102.00;;;-145.17;72.30
32759;BME280;19125;52.360;9.974;2023-05-11T08:32:51;-3605.50;;;-145.17;72.47
32759;BME280;19125;52.360;9.974;2023-05-11T08:35:16;-3357.22;;;-145.17;72.37
32759;BME280;19125;52.360;9.974;2023-05-11T08:37:42;-2115.59;;;-145.17;72.17
32759;BME280;19125;52.360;9.974;2023-05-11T08:40:12;-376.63;;;-145.17;71.64
32759;BME280;19125;52.360;9.974;2023-05-11T08:42:39;368.88;;;-145.17;71.54
32759;BME280;19125;52.360;9.974;2023-05-11T08:45:05;368.88;;;-145.17;71.37
32759;BME280;19125;52.360;9.974;2023-05-11T08:47:31;120.34;;;-145.17;71.87
32759;BME280;19125;52.360;9.974;2023-05-11T08:49:57;617.41;;;-145.17;71.62
32759;BME280;19125;52.360;9.974;2023-05-11T08:52:24;1860.31;;;-145.17;71.40
32759;BME280;19125;52.360;9.974;2023-05-11T08:54:50;3103.63;;;-145.17;71.26
32759;BME280;19125;52.360;9.974;2023-05-11T08:57:17;3849.81;;;-145.17;71.00
32759;BME280;19125;52.360;9.974;2023-05-11T08:59:43;5342.63;;;-145.17;70.94
32759;BME280;19125;52.360;9.974;2023-05-11T09:02:17;6587.06;;;-145.17;70.64
32759;BME280;19125;52.360;9.974;2023-05-11T09:04:43;8329.94;;;-145.17;70.60
32759;BME280;19125;52.360;9.974;2023-05-11T09:07:10;8828.06;;;-145.17;70.46
32759;BME280;19125;52.360;9.974;2023-05-11T09:09:36;10322.78;;;-145.17;70.49
32759;BME280;19125;52.360;9.974;2023-05-11T09:12:02;10322.78;;;-145.17;70.58
32759;BME280;19125;52.360;9.974;2023-05-11T09:14:28;10322.78;;;-145.17;70.64
32759;BME280;19125;52.360;9.974;2023-05-11T09:16:53;10073.63;;;-145.17;70.92
32759;BME280;19125;52.360;9.974;2023-05-11T09:19:19;8828.06;;;-145.17;71.17
32759;BME280;19125;52.360;9.974;2023-05-11T09:21:46;8080.91;;;-145.17;71.01
32759;BME280;19125;52.360;9.974;2023-05-11T09:24:11;8080.91;;;-145.17;70.86
32759;BME280;19125;52.360;9.974;2023-05-11T09:26:37;7831.91;;;-145.17;70.97
32759;BME280;19125;52.360;9.974;2023-05-11T09:29:02;9077.13;;;-145.17;70.77
32759;BME280;19125;52.360;9.974;2023-05-11T09:31:45;10322.78;;;-145.17;70.84
32759;BME280;19125;52.360;9.974;2023-05-11T09:36:44;13563.31;;;-145.17;70.40
32759;BME280;19125;52.360;9.974;2023-05-11T09:39:10;14810.38;;;-145.17;70.18
32759;BME280;19125;52.360;9.974;2023-05-11T09:41:36;16307.41;;;-145.17;69.89
32759;BME280;19125;52.360;9.974;2023-05-11T09:44:13;17305.75;;;-145.17;69.66
32759;BME280;19125;52.360;9.974;2023-05-11T09:46:41;19303.19;;;-145.17;69.67
32759;BME280;19125;52.360;9.974;2023-05-11T09:49:07;21051.81;;;-145.17;69.73
32759;BME280;19125;52.360;9.974;2023-05-11T09:51:34;23551.19;;;-145.17;69.45
32759;BME280;19125;52.360;9.974;2023-05-11T09:54:02;25551.84;;;-145.17;69.19
32759;BME280;19125;52.360;9.974;2023-05-11T09:56:45;27303.25;;;-145.17;68.95
32759;BME280;19125;52.360;9.974;2023-05-11T09:59:13;29556.22;;;-145.17;68.66
32759;BME280;19125;52.360;9.974;2023-05-11T10:01:38;29305.81;;;-145.17;69.19
32759;BME280;19125;52.360;9.974;2023-05-11T10:04:04;30557.94;;;-145.17;68.77
32759;BME280;19125;52.360;9.974;2023-05-11T10:06:44;31810.47;;;-145.17;68.63
32759;BME280;19125;52.360;9.974;2023-05-11T10:09:10;32061.03;;;-145.17;68.79
32759;BME280;19125;52.360;9.974;2023-05-11T10:11:37;30307.50;;;-145.17;69.09
32759;BME280;19125;52.360;9.974;2023-05-11T10:14:03;29556.22;;;-145.17;69.48
32759;BME280;19125;52.360;9.974;2023-05-11T10:16:29;27803.78;;;-145.17;69.56
32759;BME280;19125;52.360;9.974;2023-05-11T10:18:55;27053.00;;;-145.17;69.53
32759;BME280;19125;52.360;9.974;2023-05-11T10:21:21;24801.47;;;-145.17;69.77
32759;BME280;19125;52.360;9.974;2023-05-11T10:23:47;22301.28;;;-145.17;69.97
32759;BME280;19125;52.360;9.974;2023-05-11T10:26:13;21051.81;;;-145.17;70.31
32759;BME280;19125;52.360;9.974;2023-05-11T10:28:39;19053.47;;;-145.17;70.53
32759;BME280;19125;52.360;9.974;2023-05-11T10:31:04;16556.97;;;-145.17;70.49
32759;BME280;19125;52.360;9.974;2023-05-11T10:33:30;14062.09;;;-145.17;71.13
32759;BME280;19125;52.360;9.974;2023-05-11T10:35:56;11818.06;;;-145.17;70.95
32759;BME280;19125;52.360;9.974;2023-05-11T10:38:23;9824.47;;;-145.17;71.52
32759;BME280;19125;52.360;9.974;2023-05-11T10:40:50;8329.94;;;-145.17;71.78
32759;BME280;19125;52.360;9.974;2023-05-11T10:46:34;5342.63;;;-145.17;71.84
32759;BME280;19125;52.360;9.974;2023-05-11T10:55:05;7084.94;;;-145.17;71.30
32759;BME280;19125;52.360;9.974;2023-05-11T10:58:06;7831.91;;;-145.17;70.91
32759;BME280;19125;52.360;9.974;2023-05-11T11:03:12;10322.78;;;-145.17;70.39
32759;BME280;19125;52.360;9.974;2023-05-11T11:05:38;11070.34;;;-145.17;70.54
32759;BME280;19125;52.360;9.974;2023-05-11T11:08:04;13563.31;;;-145.17;69.86
32759;BME280;19125;52.360;9.974;2023-05-11T11:10:35;15558.84;;;-145.17;69.92
32759;BME280;19125;52.360;9.974;2023-05-11T11:13:13;16307.41;;;-145.17;69.92
32759;BME280;19125;52.360;9.974;2023-05-11T11:18:22;15808.34;;;-145.17;70.35
32759;BME280;19125;52.360;9.974;2023-05-11T11:20:53;15309.34;;;-145.17;70.21
32759;BME280;19125;52.360;9.974;2023-05-11T11:26:02;12815.25;;;-145.17;70.57
32759;BME280;19125;52.360;9.974;2023-05-11T11:31:29;9824.47;;;-145.17;71.11
32759;BME280;19125;52.360;9.974;2023-05-11T11:33:56;8080.91;;;-145.17;71.24
32759;BME280;19125;52.360;9.974;2023-05-11T11:39:43;6089.22;;;-145.17;71.47
32759;BME280;19125;52.360;9.974;2023-05-11T11:42:13;5093.78;;;-145.17;71.62
32759;BME280;19125;52.360;9.974;2023-05-11T11:44:40;3601.06;;;-145.17;71.80
32759;BME280;19125;52.360;9.974;2023-05-11T11:47:13;2357.59;;;-145.17;71.91
32759;BME280;19125;52.360;9.974;2023-05-11T11:49:46;1363.13;;;-145.17;72.24
32759;BME280;19125;52.360;9.974;2023-05-11T11:52:32;617.41;;;-145.17;72.03
32759;BME280;19125;52.360;9.974;2023-05-11T11:54:59;120.34;;;-145.17;71.96
32759;BME280;19125;52.360;9.974;2023-05-11T12:00:03;-128.16;;;-145.17;71.71
32759;BME280;19125;52.360;9.974;2023-05-11T12:02:42;120.34;;;-145.17;71.86
32759;BME280;19125;52.360;9.974;2023-05-11T12:05:18;865.97;;;-145.17;71.56
32759;BME280;19125;52.360;9.974;2023-05-11T12:07:48;1860.31;;;-145.17;71.23
32759;BME280;19125;52.360;9.974;2023-05-11T12:10:21;5093.78;;;-145.17;70.36
32759;BME280;19125;52.360;9.974;2023-05-11T12:12:48;9326.22;;;-145.17;70.16
32759;BME280;19125;52.360;9.974;2023-05-11T12:15:25;11070.34;;;-145.17;69.82
32759;BME280;19125;52.360;9.974;2023-05-11T12:17:51;14062.09;;;-145.17;69.51
32759;BME280;19125;52.360;9.974;2023-05-11T12:20:18;16057.88;;;-145.17;68.99
32759;BME280;19125;52.360;9.974;2023-05-11T12:22:44;20552.13;;;-145.17;68.32
32759;BME280;19125;52.360;9.974;2023-05-11T12:25:14;28304.41;;;-145.17;67.80
32759;BME280;19125;52.360;9.974;2023-05-11T12:27:59;33815.38;;;-145.17;67.34
32759;BME280;19125;52.360;9.974;2023-05-11T12:30:33;39083.06;;;-145.17;66.97
32759;BME280;19125;52.360;9.974;2023-05-11T12:32:59;45614.78;;;-145.17;66.51
32759;BME280;19125;52.360;9.974;2023-05-11T12:35:29;54676.56;;;-145.17;66.06
32759;BME280;19125;52.360;9.974;2023-05-11T12:37:57;63253.97;;;-145.17;65.52
32759;BME280;19125;52.360;9.974;2023-05-11T12:40:23;68754.69;;;-145.17;65.30
32759;BME280;19125;52.360;9.974;2023-05-11T12:42:52;75956.91;;;-145.17;64.62
32759;BME280;19125;52.360;9.974;2023-05-11T12:45:19;81457.28;;;-145.17;63.94
32759;BME280;19125;52.360;9.974;2023-05-11T12:47:46;85326.13;;;-145.17;62.66
32759;BME280;19125;52.360;9.974;2023-05-11T12:50:11;85824.13;;;-145.17;63.00
32759;BME280;19125;52.360;9.974;2023-05-11T12:52:37;86433.31;;;-145.17;62.04
32759;BME280;19125;52.360;9.974;2023-05-11T12:55:02;86641.72;;;-145.17;61.74
32759;BME280;19125;52.360;9.974;2023-05-11T12:57:29;86683.38;;;-145.17;62.06
32759;BME280;19125;52.360;9.974;2023-05-11T13:00:24;86671.47;;;-145.17;62.74
32759;BME280;19125;52.360;9.974;2023-05-11T13:02:51;86635.75;;;-145.17;63.33
32759;BME280;19125;52.360;9.974;2023-05-11T13:05:21;86391.66;;;-145.17;64.16
32759;BME280;19125;52.360;9.974;2023-05-11T13:07:47;85788.41;;;-145.17;64.49
32759;BME280;19125;52.360;9.974;2023-05-11T13:10:22;85310.25;;;-145.17;64.74
32759;BME280;19125;52.360;9.974;2023-05-11T13:12:49;85401.53;;;-145.17;64.68
32759;BME280;19125;52.360;9.974;2023-05-11T13:15:16;85365.81;;;-145.17;64.98
32759;BME280;19125;52.360;9.974;2023-05-11T13:17:42;85137.66;;;-145.17;65.12